createdAt,value
2023-04-09T00:03:26.846Z,4.51
2023-04-09T00:06:54.040Z,4.54
2023-04-09T00:10:21.403Z,4.57
2023-04-09T00:13:48.292Z,4.59
2023-04-09T00:17:15.107Z,4.63
2023-04-09T00:20:42.083Z,4.65
2023-04-09T00:24:09.321Z,4.68
2023-04-09T00:27:36.314Z,4.71
2023-04-09T00:31:03.729Z,4.74
2023-04-09T00:34:30.567Z,4.76
2023-04-09T00:37:57.598Z,4.77
2023-04-09T00:41:24.560Z,4.78
2023-04-09T00:44:51.349Z,4.80
2023-04-09T00:48:18.793Z,4.80
2023-04-09T00:51:47.706Z,4.81
2023-04-09T00:55:15.537Z,4.82
2023-04-09T00:58:43.160Z,4.82
2023-04-09T01:02:10.147Z,4.81
2023-04-09T01:05:45.217Z,4.83
2023-04-09T01:09:19.478Z,4.84
2023-04-09T01:12:59.322Z,4.85
2023-04-09T01:16:27.231Z,4.85
2023-04-09T01:20:03.308Z,4.84
2023-04-09T01:23:43.517Z,4.84
2023-04-09T01:27:11.366Z,4.84
2023-04-09T01:30:50.506Z,4.85
2023-04-09T01:34:18.059Z,4.87
2023-04-09T01:37:45.424Z,4.90
2023-04-09T01:41:16.047Z,4.90
2023-04-09T01:44:43.766Z,4.92
2023-04-09T01:48:11.373Z,4.94
2023-04-09T01:51:39.460Z,4.94
2023-04-09T01:55:07.333Z,4.95
2023-04-09T01:58:35.333Z,4.97
2023-04-09T02:02:07.932Z,4.97
2023-04-09T02:05:42.626Z,4.99
2023-04-09T02:09:12.703Z,4.99
2023-04-09T02:12:43.918Z,5.00
2023-04-09T02:16:12.681Z,5.02
2023-04-09T02:19:44.832Z,5.02
2023-04-09T02:23:13.635Z,5.03
2023-04-09T02:26:40.628Z,5.03
2023-04-09T02:30:09.690Z,5.03
2023-04-09T02:33:36.461Z,5.02
2023-04-09T02:37:03.650Z,5.04
2023-04-09T02:40:31.167Z,5.05
2023-04-09T02:43:58.276Z,5.06
2023-04-09T02:47:27.202Z,5.05
2023-04-09T02:50:54.120Z,5.07
2023-04-09T02:54:21.505Z,5.06
2023-04-09T02:57:48.649Z,5.06
2023-04-09T03:01:15.592Z,5.05
2023-04-09T03:04:42.598Z,5.04
2023-04-09T03:08:09.666Z,5.02
2023-04-09T03:11:36.989Z,5.00
2023-04-09T03:15:04.593Z,4.98
2023-04-09T03:18:31.526Z,4.98
2023-04-09T03:21:58.483Z,5.00
2023-04-09T03:25:26.647Z,5.01
2023-04-09T03:28:54.642Z,5.02
2023-04-09T03:32:22.127Z,5.03
2023-04-09T03:35:49.373Z,5.02
2023-04-09T03:39:17.854Z,5.00
2023-04-09T03:42:46.671Z,4.95
2023-04-09T03:46:18.862Z,4.91
2023-04-09T03:49:47.231Z,4.88
2023-04-09T03:53:24.069Z,4.86
2023-04-09T03:56:52.542Z,4.85
2023-04-09T04:00:20.739Z,4.85
2023-04-09T04:04:16.516Z,4.86
2023-04-09T04:08:03.925Z,4.86
2023-04-09T04:11:30.939Z,4.84
2023-04-09T04:14:58.077Z,4.80
2023-04-09T04:18:31.730Z,4.76
2023-04-09T04:21:58.716Z,4.72
2023-04-09T04:25:26.887Z,4.70
2023-04-09T04:28:55.096Z,4.70
2023-04-09T04:33:01.104Z,4.71
2023-04-09T04:36:28.851Z,4.73
2023-04-09T04:39:55.869Z,4.74
2023-04-09T04:43:23.378Z,4.74
2023-04-09T04:46:52.487Z,4.74
2023-04-09T04:50:19.618Z,4.74
2023-04-09T04:53:57.194Z,4.76
2023-04-09T04:57:24.863Z,4.79
2023-04-09T05:00:52.591Z,4.81
2023-04-09T05:04:19.600Z,4.82
2023-04-09T05:07:47.273Z,4.82
2023-04-09T05:11:16.936Z,4.84
2023-04-09T05:14:45.718Z,4.88
2023-04-09T05:18:12.851Z,4.92
2023-04-09T05:21:40.419Z,4.98
2023-04-09T05:25:10.536Z,5.01
2023-04-09T05:28:39.077Z,5.05
2023-04-09T05:32:13.392Z,5.11
2023-04-09T05:35:42.667Z,5.19
2023-04-09T05:39:10.126Z,5.28
2023-04-09T05:42:37.981Z,5.35
2023-04-09T05:46:12.151Z,5.40
2023-04-09T05:49:39.076Z,5.42
2023-04-09T05:53:10.241Z,5.44
2023-04-09T05:56:41.821Z,5.49
2023-04-09T06:00:10.865Z,5.52
2023-04-09T06:03:44.382Z,5.56
2023-04-09T06:07:11.495Z,5.60
2023-04-09T06:10:39.545Z,5.68
2023-04-09T06:14:08.509Z,5.83
2023-04-09T06:17:35.624Z,5.96
2023-04-09T06:21:06.981Z,6.14
2023-04-09T06:24:35.973Z,6.29
2023-04-09T06:28:05.589Z,6.37
2023-04-09T06:31:33.570Z,6.40
2023-04-09T06:35:01.787Z,6.39
2023-04-09T06:38:29.559Z,6.34
2023-04-09T06:41:56.598Z,6.33
2023-04-09T06:45:32.878Z,6.38
2023-04-09T06:49:00.063Z,6.54
2023-04-09T06:52:27.010Z,6.74
2023-04-09T06:55:55.501Z,7.01
2023-04-09T06:59:23.634Z,7.35
2023-04-09T07:02:50.726Z,7.40
2023-04-09T07:06:17.809Z,7.30
2023-04-09T07:09:45.594Z,7.31
2023-04-09T07:13:12.675Z,7.44
2023-04-09T07:16:39.765Z,7.55
2023-04-09T07:20:08.371Z,7.56
2023-04-09T07:23:38.217Z,7.55
2023-04-09T07:27:07.693Z,7.53
2023-04-09T07:30:34.991Z,7.54
2023-04-09T07:34:03.129Z,7.58
2023-04-09T07:37:30.558Z,7.61
2023-04-09T07:40:58.552Z,7.63
2023-04-09T07:44:26.348Z,7.66
2023-04-09T07:47:53.809Z,7.68
2023-04-09T07:51:22.903Z,7.69
2023-04-09T07:54:52.389Z,7.70
2023-04-09T07:58:20.583Z,7.71
2023-04-09T08:01:47.748Z,7.73
2023-04-09T08:05:15.757Z,7.79
2023-04-09T08:08:45.716Z,7.95
2023-04-09T08:12:13.277Z,8.16
2023-04-09T08:15:41.608Z,8.31
2023-04-09T08:19:09.358Z,8.42
2023-04-09T08:22:37.444Z,8.47
2023-04-09T08:26:04.674Z,8.53
2023-04-09T08:29:32.532Z,8.57
2023-04-09T08:32:59.691Z,8.75
2023-04-09T08:36:27.819Z,8.92
2023-04-09T08:39:56.089Z,8.97
2023-04-09T08:43:41.962Z,9.03
2023-04-09T08:47:14.371Z,9.10
2023-04-09T08:50:42.198Z,9.12
2023-04-09T08:54:10.400Z,9.05
2023-04-09T08:57:42.863Z,9.01
2023-04-09T09:01:22.086Z,9.14
2023-04-09T09:04:51.139Z,9.26
2023-04-09T09:08:27.255Z,9.37
2023-04-09T09:11:55.037Z,9.74
2023-04-09T09:15:32.288Z,10.16
2023-04-09T09:19:01.162Z,10.52
2023-04-09T09:22:28.261Z,10.81
2023-04-09T09:25:56.426Z,11.17
2023-04-09T09:29:24.826Z,11.38
2023-04-09T09:32:55.237Z,11.41
2023-04-09T09:36:36.845Z,11.13
2023-04-09T09:40:05.289Z,11.18
2023-04-09T09:43:43.357Z,11.30
2023-04-09T09:47:13.397Z,11.41
2023-04-09T09:50:42.139Z,11.54
2023-04-09T09:54:13.069Z,11.58
2023-04-09T09:57:43.621Z,11.54
2023-04-09T10:01:14.650Z,11.69
2023-04-09T10:04:41.954Z,11.88
2023-04-09T10:08:10.260Z,12.10
2023-04-09T10:11:42.566Z,12.24
2023-04-09T10:15:12.157Z,12.48
2023-04-09T10:18:40.757Z,12.51
2023-04-09T10:22:11.461Z,12.51
2023-04-09T10:25:38.494Z,12.66
2023-04-09T10:29:10.061Z,12.74
2023-04-09T10:32:40.034Z,12.66
2023-04-09T10:36:13.360Z,12.66
2023-04-09T10:39:46.236Z,12.68
2023-04-09T10:43:14.478Z,12.53
2023-04-09T10:46:43.275Z,12.35
2023-04-09T10:50:26.699Z,12.16
2023-04-09T10:53:55.172Z,12.11
2023-04-09T10:57:26.376Z,12.07
2023-04-09T11:00:55.349Z,12.19
2023-04-09T11:04:24.546Z,12.34
2023-04-09T11:07:56.271Z,12.47
2023-04-09T11:11:29.407Z,12.47
2023-04-09T11:14:56.269Z,12.47
2023-04-09T11:18:28.555Z,12.32
2023-04-09T11:21:56.196Z,12.09
2023-04-09T11:25:26.530Z,11.94
2023-04-09T11:28:59.180Z,11.95
2023-04-09T11:32:32.054Z,12.10
2023-04-09T11:35:59.053Z,12.43
2023-04-09T11:39:26.309Z,12.77
2023-04-09T11:42:55.580Z,12.97
2023-04-09T11:46:26.155Z,12.81
2023-04-09T11:49:54.058Z,12.54
2023-04-09T11:53:24.523Z,12.47
2023-04-09T11:56:56.050Z,12.60
2023-04-09T12:00:24.959Z,12.52
2023-04-09T12:03:57.232Z,12.23
2023-04-09T12:07:25.409Z,12.15
2023-04-09T12:10:54.099Z,12.24
2023-04-09T12:14:22.897Z,12.41
2023-04-09T12:17:52.193Z,12.54
2023-04-09T12:21:19.465Z,12.68
2023-04-09T12:24:46.594Z,12.78
2023-04-09T12:28:15.845Z,12.91
2023-04-09T12:31:42.713Z,12.83
2023-04-09T12:35:10.650Z,12.57
2023-04-09T12:38:38.320Z,12.30
2023-04-09T12:42:05.215Z,12.32
2023-04-09T12:45:32.692Z,12.39
2023-04-09T12:48:59.517Z,12.35
2023-04-09T12:52:26.718Z,12.34
2023-04-09T12:55:53.913Z,12.28
2023-04-09T12:59:20.933Z,12.41
2023-04-09T13:02:48.176Z,12.56
2023-04-09T13:06:15.271Z,12.53
2023-04-09T13:09:42.224Z,12.54
2023-04-09T13:13:12.275Z,12.50
2023-04-09T13:16:39.372Z,12.56
2023-04-09T13:20:07.862Z,12.72
2023-04-09T13:23:34.806Z,12.75
2023-04-09T13:27:02.158Z,12.82
2023-04-09T13:30:29.418Z,12.63
2023-04-09T13:33:56.688Z,12.59
2023-04-09T13:37:23.619Z,12.51
2023-04-09T13:40:50.348Z,12.61
2023-04-09T13:44:17.286Z,12.72
2023-04-09T13:47:44.500Z,12.58
2023-04-09T13:51:12.177Z,12.28
2023-04-09T13:54:39.555Z,12.25
2023-04-09T13:58:06.618Z,12.26
2023-04-09T14:01:35.938Z,11.97
2023-04-09T14:05:03.989Z,11.91
2023-04-09T14:08:32.234Z,12.02
2023-04-09T14:11:59.068Z,12.25
2023-04-09T14:15:26.450Z,12.37
2023-04-09T14:18:53.474Z,12.35
2023-04-09T14:22:20.526Z,12.51
2023-04-09T14:25:47.424Z,12.74
2023-04-09T14:29:14.295Z,12.64
2023-04-09T14:32:41.323Z,12.53
2023-04-09T14:36:09.403Z,12.56
2023-04-09T14:39:36.474Z,12.58
2023-04-09T14:43:03.514Z,12.54
2023-04-09T14:46:30.433Z,12.64
2023-04-09T14:49:57.534Z,12.74
2023-04-09T14:53:24.741Z,12.80
2023-04-09T14:56:52.111Z,12.81
2023-04-09T15:00:19.804Z,12.74
2023-04-09T15:03:47.708Z,12.71
2023-04-09T15:07:14.548Z,12.67
2023-04-09T15:10:41.932Z,12.78
2023-04-09T15:14:08.914Z,12.82
2023-04-09T15:17:35.900Z,12.69
2023-04-09T15:21:03.234Z,12.51
2023-04-09T15:24:30.089Z,12.39
2023-04-09T15:27:57.160Z,12.24
2023-04-09T15:31:24.272Z,12.14
2023-04-09T15:34:51.280Z,12.05
2023-04-09T15:38:21.200Z,11.98
2023-04-09T15:41:48.106Z,11.92
2023-04-09T15:45:16.792Z,11.92
2023-04-09T15:48:43.905Z,11.87
2023-04-09T15:52:11.216Z,11.77
2023-04-09T15:55:38.216Z,11.70
2023-04-09T15:59:05.438Z,11.61
2023-04-09T16:02:32.446Z,11.54
2023-04-09T16:06:01.825Z,11.45
2023-04-09T16:09:29.312Z,11.35
2023-04-09T16:12:56.599Z,11.31
2023-04-09T16:16:23.824Z,11.29
2023-04-09T16:19:51.048Z,11.28
2023-04-09T16:23:18.244Z,11.27
2023-04-09T16:26:46.517Z,11.26
2023-04-09T16:30:14.619Z,11.25
2023-04-09T16:33:43.264Z,11.22
2023-04-09T16:37:11.926Z,11.18
2023-04-09T16:40:39.856Z,11.16
2023-04-09T16:44:10.411Z,11.13
2023-04-09T16:47:40.592Z,11.10
2023-04-09T16:51:11.080Z,11.05
2023-04-09T16:54:38.928Z,11.00
2023-04-09T16:58:09.511Z,10.97
2023-04-09T17:01:38.720Z,10.93
2023-04-09T17:05:09.071Z,10.87
2023-04-09T17:08:37.147Z,10.82
2023-04-09T17:12:05.731Z,10.75
2023-04-09T17:15:33.477Z,10.68
2023-04-09T17:19:04.670Z,10.60
2023-04-09T17:22:38.277Z,10.50
2023-04-09T17:26:06.663Z,10.40
2023-04-09T17:29:35.728Z,10.29
2023-04-09T17:33:05.076Z,10.17
2023-04-09T17:36:35.613Z,10.05
2023-04-09T17:40:04.299Z,9.97
2023-04-09T17:43:32.095Z,9.88
2023-04-09T17:47:00.511Z,9.79
2023-04-09T17:50:29.117Z,9.69
2023-04-09T17:53:57.420Z,9.59
2023-04-09T17:57:27.858Z,9.49
2023-04-09T18:00:57.132Z,9.40
2023-04-09T18:04:29.087Z,9.30
2023-04-09T18:07:59.910Z,9.19
2023-04-09T18:11:28.163Z,9.11
2023-04-09T18:14:55.371Z,9.04
2023-04-09T18:18:25.711Z,8.95
2023-04-09T18:21:55.534Z,8.87
2023-04-09T18:25:23.580Z,8.79
2023-04-09T18:28:51.644Z,8.69
2023-04-09T18:32:20.364Z,8.60
2023-04-09T18:35:49.536Z,8.51
2023-04-09T18:39:20.199Z,8.44
2023-04-09T18:42:53.007Z,8.37
2023-04-09T18:46:22.928Z,8.30
2023-04-09T18:49:52.146Z,8.25
2023-04-09T18:53:20.248Z,8.20
2023-04-09T18:56:49.381Z,8.16
2023-04-09T19:00:18.594Z,8.13
2023-04-09T19:03:46.336Z,8.11
2023-04-09T19:07:17.779Z,8.07
2023-04-09T19:10:47.825Z,8.05
2023-04-09T19:14:16.122Z,8.04
2023-04-09T19:17:45.163Z,8.01
2023-04-09T19:21:13.799Z,7.98
2023-04-09T19:24:44.308Z,7.95
2023-04-09T19:28:12.670Z,7.92
2023-04-09T19:31:41.650Z,7.89
2023-04-09T19:35:12.679Z,7.89
2023-04-09T19:38:40.728Z,7.89
2023-04-09T19:42:10.299Z,7.88
2023-04-09T19:45:39.387Z,7.89
2023-04-09T19:49:08.233Z,7.89
2023-04-09T19:52:37.994Z,7.88
2023-04-09T19:56:06.069Z,7.86
2023-04-09T19:59:41.060Z,7.84
2023-04-09T20:03:10.561Z,7.83
2023-04-09T20:06:37.562Z,7.82
2023-04-09T20:10:05.076Z,7.80
2023-04-09T20:13:33.404Z,7.79
2023-04-09T20:17:00.433Z,7.79
2023-04-09T20:20:27.785Z,7.79
2023-04-09T20:23:54.704Z,7.78
2023-04-09T20:27:22.637Z,7.76
2023-04-09T20:30:49.437Z,7.75
2023-04-09T20:34:16.558Z,7.74
2023-04-09T20:37:43.516Z,7.73
2023-04-09T20:41:10.495Z,7.72
2023-04-09T20:44:38.185Z,7.72
2023-04-09T20:48:05.095Z,7.71
2023-04-09T20:51:32.265Z,7.70
2023-04-09T20:54:59.975Z,7.71
2023-04-09T20:58:27.707Z,7.71
2023-04-09T21:01:55.676Z,7.72
2023-04-09T21:05:24.184Z,7.72
2023-04-09T21:08:52.217Z,7.72
2023-04-09T21:12:19.340Z,7.70
2023-04-09T21:15:46.455Z,7.70
2023-04-09T21:19:13.643Z,7.71
2023-04-09T21:22:41.087Z,7.71
2023-04-09T21:26:08.998Z,7.69
2023-04-09T21:29:36.156Z,7.66
2023-04-09T21:33:05.675Z,7.63
2023-04-09T21:36:36.365Z,7.61
2023-04-09T21:40:03.706Z,7.54
2023-04-09T21:43:30.691Z,7.48
2023-04-09T21:46:57.838Z,7.42
2023-04-09T21:50:25.099Z,7.34
2023-04-09T21:53:54.185Z,7.28
2023-04-09T21:57:21.100Z,7.22
2023-04-09T22:00:48.169Z,7.18
2023-04-09T22:04:15.137Z,7.14
2023-04-09T22:07:42.672Z,7.09
2023-04-09T22:11:09.970Z,7.05
2023-04-09T22:14:36.942Z,6.99
2023-04-09T22:18:04.102Z,6.94
2023-04-09T22:21:31.707Z,6.89
2023-04-09T22:24:58.717Z,6.85
2023-04-09T22:28:25.775Z,6.81
2023-04-09T22:31:52.693Z,6.76
2023-04-09T22:35:20.043Z,6.70
2023-04-09T22:38:47.517Z,6.61
2023-04-09T22:42:14.775Z,6.55
2023-04-09T22:45:41.630Z,6.49
2023-04-09T22:49:09.133Z,6.44
2023-04-09T22:52:36.443Z,6.38
2023-04-09T22:56:03.712Z,6.32
2023-04-09T22:59:39.248Z,6.26
2023-04-09T23:03:07.726Z,6.19
2023-04-09T23:06:34.723Z,6.11
2023-04-09T23:10:02.090Z,6.04
2023-04-09T23:13:29.124Z,5.97
2023-04-09T23:16:56.419Z,5.90
2023-04-09T23:20:23.754Z,5.84
2023-04-09T23:23:50.622Z,5.78
2023-04-09T23:27:17.569Z,5.73
2023-04-09T23:30:45.063Z,5.67
2023-04-09T23:34:13.022Z,5.62
2023-04-09T23:37:39.892Z,5.56
2023-04-09T23:41:08.118Z,5.50
2023-04-09T23:44:35.506Z,5.43
2023-04-09T23:48:03.296Z,5.39
2023-04-09T23:51:30.172Z,5.35
2023-04-09T23:54:56.992Z,5.29
2023-04-09T23:58:24.057Z,5.24
